createdAt,value
2018-12-30T00:01:11.635Z,17.60
2018-12-30T00:03:40.857Z,18.87
2018-12-30T00:06:10.303Z,16.50
2018-12-30T00:08:39.753Z,18.87
2018-12-30T00:11:08.923Z,22.20
2018-12-30T00:13:38.079Z,19.33
2018-12-30T00:16:07.525Z,19.80
2018-12-30T00:18:36.665Z,17.23
2018-12-30T00:21:09.160Z,18.53
2018-12-30T00:23:36.753Z,20.90
2018-12-30T00:26:05.882Z,22.20
2018-12-30T00:28:35.075Z,18.70
2018-12-30T00:31:04.222Z,24.83
2018-12-30T00:33:33.726Z,16.67
2018-12-30T00:36:02.898Z,19.00
2018-12-30T00:38:35.124Z,19.50
2018-12-30T00:41:04.264Z,15.13
2018-12-30T00:43:33.555Z,15.20
2018-12-30T00:46:03.127Z,21.50
2018-12-30T00:48:36.004Z,20.27
2018-12-30T00:51:05.172Z,16.23
2018-12-30T00:53:34.306Z,17.27
2018-12-30T00:56:03.503Z,13.80
2018-12-30T00:58:32.974Z,14.70
2018-12-30T01:01:02.223Z,23.23
2018-12-30T01:03:31.368Z,18.80
2018-12-30T01:06:00.641Z,11.77
2018-12-30T01:08:29.801Z,16.17
2018-12-30T01:10:58.986Z,11.83
2018-12-30T01:13:28.154Z,13.20
2018-12-30T01:15:57.430Z,15.30
2018-12-30T01:18:26.633Z,11.00
2018-12-30T01:20:55.801Z,16.67
2018-12-30T01:23:25.355Z,22.27
2018-12-30T01:25:54.869Z,16.80
2018-12-30T01:28:24.314Z,17.33
2018-12-30T01:30:53.508Z,15.53
2018-12-30T01:33:22.652Z,13.53
2018-12-30T01:35:51.827Z,17.60
2018-12-30T01:38:21.266Z,19.43
2018-12-30T01:40:50.521Z,17.17
2018-12-30T01:43:20.056Z,18.83
2018-12-30T01:45:49.194Z,18.03
2018-12-30T01:48:18.386Z,22.13
2018-12-30T01:50:47.658Z,21.03
2018-12-30T01:53:16.958Z,20.70
2018-12-30T01:55:46.122Z,20.30
2018-12-30T01:58:15.310Z,20.57
2018-12-30T02:00:44.487Z,18.93
2018-12-30T02:03:13.946Z,18.03
2018-12-30T02:05:43.203Z,15.37
2018-12-30T02:08:12.406Z,20.60
2018-12-30T02:10:41.612Z,22.63
2018-12-30T02:13:10.904Z,16.73
2018-12-30T02:15:40.057Z,11.77
2018-12-30T02:18:09.192Z,16.13
2018-12-30T02:20:38.935Z,16.17
2018-12-30T02:23:08.190Z,12.83
2018-12-30T02:25:37.390Z,16.03
2018-12-30T02:28:06.560Z,15.40
2018-12-30T02:30:35.801Z,15.73
2018-12-30T02:33:05.590Z,15.37
2018-12-30T02:35:34.736Z,18.87
2018-12-30T02:38:03.879Z,16.67
2018-12-30T02:40:33.338Z,22.03
2018-12-30T02:43:02.608Z,13.73
2018-12-30T02:45:31.766Z,18.20
2018-12-30T02:48:00.903Z,15.10
2018-12-30T02:50:30.097Z,19.17
2018-12-30T02:52:59.761Z,17.10
2018-12-30T02:55:28.942Z,20.03
2018-12-30T02:57:58.120Z,17.90
2018-12-30T03:00:27.244Z,22.10
2018-12-30T03:02:56.436Z,18.63
2018-12-30T03:05:25.592Z,20.23
2018-12-30T03:07:54.844Z,19.93
2018-12-30T03:10:24.042Z,18.23
2018-12-30T03:12:53.227Z,22.13
2018-12-30T03:15:22.641Z,22.10
2018-12-30T03:17:51.788Z,16.90
2018-12-30T03:20:20.962Z,21.03
2018-12-30T03:22:50.161Z,21.53
2018-12-30T03:25:19.431Z,19.13
2018-12-30T03:27:48.617Z,20.27
2018-12-30T03:30:17.753Z,16.40
2018-12-30T03:32:46.955Z,20.90
2018-12-30T03:35:16.263Z,18.73
2018-12-30T03:37:45.508Z,21.60
2018-12-30T03:40:14.799Z,20.13
2018-12-30T03:42:44.043Z,20.00
2018-12-30T03:45:13.214Z,18.70
2018-12-30T03:47:42.537Z,18.73
2018-12-30T03:50:11.673Z,11.97
2018-12-30T03:52:41.053Z,15.67
2018-12-30T03:55:10.220Z,16.40
2018-12-30T03:57:39.497Z,13.27
2018-12-30T04:00:08.790Z,16.67
2018-12-30T04:02:38.037Z,17.77
2018-12-30T04:05:07.213Z,16.13
2018-12-30T04:07:36.770Z,19.43
2018-12-30T04:10:06.141Z,28.30
2018-12-30T04:12:35.273Z,23.43
2018-12-30T04:15:04.523Z,17.13
2018-12-30T04:17:33.716Z,21.23
2018-12-30T04:20:02.845Z,16.97
2018-12-30T04:22:33.875Z,21.37
2018-12-30T04:25:03.105Z,21.83
2018-12-30T04:27:32.234Z,19.37
2018-12-30T04:30:01.400Z,18.63
2018-12-30T04:32:30.782Z,22.10
2018-12-30T04:34:59.957Z,16.03
2018-12-30T04:37:29.107Z,25.10
2018-12-30T04:39:58.293Z,18.33
2018-12-30T04:42:27.450Z,19.67
2018-12-30T04:44:56.631Z,17.03
2018-12-30T04:47:25.850Z,19.27
2018-12-30T04:49:55.101Z,15.57
2018-12-30T04:52:25.779Z,26.13
2018-12-30T04:54:55.157Z,17.23
2018-12-30T04:57:24.292Z,17.17
2018-12-30T04:59:53.504Z,19.83
2018-12-30T05:02:22.665Z,19.10
2018-12-30T05:04:51.835Z,15.73
2018-12-30T05:07:21.030Z,23.37
2018-12-30T05:09:50.174Z,16.67
2018-12-30T05:12:19.942Z,14.17
2018-12-30T05:14:49.129Z,24.90
2018-12-30T05:17:18.436Z,18.47
2018-12-30T05:19:47.605Z,22.27
2018-12-30T05:22:17.077Z,14.63
2018-12-30T05:24:46.220Z,19.60
2018-12-30T05:27:15.381Z,13.67
2018-12-30T05:29:44.813Z,18.90
2018-12-30T05:32:13.960Z,14.07
2018-12-30T05:34:43.239Z,21.50
2018-12-30T05:37:12.389Z,11.43
2018-12-30T05:39:41.517Z,17.77
2018-12-30T05:42:10.663Z,15.07
2018-12-30T05:44:40.078Z,17.43
2018-12-30T05:47:12.091Z,15.00
2018-12-30T05:49:41.337Z,20.70
2018-12-30T05:52:10.534Z,15.03
2018-12-30T05:54:39.727Z,20.37
2018-12-30T05:57:08.895Z,20.50
2018-12-30T05:59:38.073Z,14.57
2018-12-30T06:02:07.282Z,19.63
2018-12-30T06:04:36.432Z,15.17
2018-12-30T06:07:05.600Z,16.00
2018-12-30T06:09:34.743Z,21.10
2018-12-30T06:12:03.879Z,19.70
2018-12-30T06:14:33.050Z,19.57
2018-12-30T06:17:02.205Z,19.37
2018-12-30T06:19:31.693Z,22.17
2018-12-30T06:22:01.029Z,24.83
2018-12-30T06:24:30.172Z,18.77
2018-12-30T06:26:59.377Z,23.70
2018-12-30T06:29:28.518Z,24.50
2018-12-30T06:31:57.705Z,22.07
2018-12-30T06:34:26.877Z,29.07
2018-12-30T06:36:56.062Z,26.73
2018-12-30T06:39:25.239Z,21.60
2018-12-30T06:41:54.378Z,28.07
2018-12-30T06:44:23.567Z,24.33
2018-12-30T06:46:53.054Z,23.70
2018-12-30T06:49:22.201Z,27.83
2018-12-30T06:51:51.347Z,23.73
2018-12-30T06:54:20.573Z,20.23
2018-12-30T06:56:49.746Z,19.93
2018-12-30T06:59:18.886Z,20.13
2018-12-30T07:01:48.337Z,16.63
2018-12-30T07:04:17.612Z,16.50
2018-12-30T07:06:46.807Z,20.60
2018-12-30T07:09:16.349Z,21.67
2018-12-30T07:11:45.518Z,22.57
2018-12-30T07:14:14.661Z,20.20
2018-12-30T07:16:43.860Z,18.73
2018-12-30T07:19:13.116Z,20.47
2018-12-30T07:21:42.381Z,21.27
2018-12-30T07:24:11.545Z,23.77
2018-12-30T07:26:40.886Z,30.43
2018-12-30T07:29:10.209Z,25.03
2018-12-30T07:31:39.391Z,22.47
2018-12-30T07:34:08.548Z,25.87
2018-12-30T07:36:37.938Z,17.37
2018-12-30T07:39:07.788Z,31.70
2018-12-30T07:41:36.919Z,21.37
2018-12-30T07:44:06.219Z,21.57
2018-12-30T07:46:35.369Z,22.37
2018-12-30T07:49:04.510Z,25.17
2018-12-30T07:51:33.749Z,17.53
2018-12-30T07:54:02.922Z,23.33
2018-12-30T07:56:32.081Z,18.63
2018-12-30T07:59:02.342Z,22.30
2018-12-30T08:01:31.521Z,23.37
2018-12-30T08:04:00.782Z,28.07
2018-12-30T08:06:29.954Z,24.33
2018-12-30T08:08:59.125Z,19.77
2018-12-30T08:11:28.325Z,20.17
2018-12-30T08:13:57.467Z,21.27
2018-12-30T08:16:26.616Z,19.33
2018-12-30T08:18:55.814Z,20.20
2018-12-30T08:21:25.091Z,14.80
2018-12-30T08:23:54.239Z,17.43
2018-12-30T08:26:23.425Z,17.10
2018-12-30T08:28:52.665Z,18.13
2018-12-30T08:31:21.814Z,17.57
2018-12-30T08:33:51.000Z,15.07
2018-12-30T08:36:20.169Z,22.37
2018-12-30T08:38:49.373Z,13.57
2018-12-30T08:41:18.711Z,19.90
2018-12-30T08:43:47.920Z,23.70
2018-12-30T08:46:19.660Z,14.57
2018-12-30T08:48:49.810Z,19.87
2018-12-30T08:51:19.337Z,22.37
2018-12-30T08:53:48.528Z,16.40
2018-12-30T08:56:17.730Z,17.67
2018-12-30T08:58:46.864Z,18.33
2018-12-30T09:01:16.360Z,21.63
2018-12-30T09:03:45.621Z,25.37
2018-12-30T09:06:14.773Z,18.43
2018-12-30T09:08:43.993Z,25.10
2018-12-30T09:11:13.222Z,12.57
2018-12-30T09:13:42.422Z,13.53
2018-12-30T09:16:11.574Z,21.20
2018-12-30T09:18:40.843Z,14.63
2018-12-30T09:21:09.987Z,17.57
2018-12-30T09:23:39.446Z,16.73
2018-12-30T09:26:08.588Z,15.77
2018-12-30T09:28:37.786Z,14.90
2018-12-30T09:31:07.192Z,19.30
2018-12-30T09:33:36.383Z,17.27
2018-12-30T09:36:05.716Z,17.17
2018-12-30T09:38:34.903Z,17.70
2018-12-30T09:41:04.187Z,14.83
2018-12-30T09:43:33.365Z,12.80
2018-12-30T09:46:02.808Z,16.93
2018-12-30T09:48:33.873Z,19.93
2018-12-30T09:51:03.112Z,16.00
2018-12-30T09:53:32.267Z,17.73
2018-12-30T09:56:01.487Z,19.63
2018-12-30T09:58:30.705Z,16.80
2018-12-30T10:01:00.584Z,16.47
2018-12-30T10:03:29.900Z,16.23
2018-12-30T10:05:59.046Z,11.00
2018-12-30T10:08:28.687Z,15.37
2018-12-30T10:10:58.050Z,16.60
2018-12-30T10:13:28.107Z,18.40
2018-12-30T10:15:57.628Z,15.10
2018-12-30T10:18:26.978Z,17.77
2018-12-30T10:20:56.130Z,16.40
2018-12-30T10:23:25.623Z,17.47
2018-12-30T10:25:54.776Z,16.73
2018-12-30T10:28:23.936Z,12.10
2018-12-30T10:30:53.427Z,13.27
2018-12-30T10:33:22.586Z,11.77
2018-12-30T10:35:51.973Z,13.73
2018-12-30T10:38:21.410Z,15.13
2018-12-30T10:40:50.593Z,14.67
2018-12-30T10:43:19.793Z,10.90
2018-12-30T10:45:48.923Z,15.90
2018-12-30T10:48:18.051Z,11.43
2018-12-30T10:50:47.216Z,11.90
2018-12-30T10:53:16.379Z,11.53
2018-12-30T10:55:45.848Z,19.33
2018-12-30T10:58:14.999Z,12.60
2018-12-30T11:00:44.216Z,11.07
2018-12-30T11:03:13.374Z,13.57
2018-12-30T11:05:42.839Z,13.50
2018-12-30T11:08:12.018Z,9.17
2018-12-30T11:10:41.176Z,9.60
2018-12-30T11:13:10.359Z,14.77
2018-12-30T11:15:39.602Z,14.37
2018-12-30T11:18:08.820Z,9.00
2018-12-30T11:20:37.964Z,15.00
2018-12-30T11:23:07.222Z,12.47
2018-12-30T11:25:36.426Z,13.20
2018-12-30T11:28:05.573Z,10.43
2018-12-30T11:30:34.774Z,16.97
2018-12-30T11:33:03.965Z,16.00
2018-12-30T11:35:33.144Z,11.63
2018-12-30T11:38:02.401Z,12.60
2018-12-30T11:40:31.617Z,12.73
2018-12-30T11:43:02.615Z,12.20
2018-12-30T11:45:31.788Z,12.53
2018-12-30T11:48:01.096Z,14.30
2018-12-30T11:50:30.296Z,9.17
2018-12-30T11:52:59.470Z,9.13
2018-12-30T11:55:28.641Z,13.10
2018-12-30T11:57:57.807Z,16.27
2018-12-30T12:00:26.995Z,15.83
2018-12-30T12:02:56.179Z,15.40
2018-12-30T12:05:25.359Z,13.93
2018-12-30T12:07:54.550Z,12.27
2018-12-30T12:10:23.775Z,14.87
2018-12-30T12:12:52.946Z,13.63
2018-12-30T12:15:22.224Z,12.63
2018-12-30T12:17:51.597Z,10.30
2018-12-30T12:20:20.821Z,10.57
2018-12-30T12:22:50.095Z,8.00
2018-12-30T12:25:19.251Z,8.10
2018-12-30T12:27:48.466Z,9.73
2018-12-30T12:30:18.055Z,13.67
2018-12-30T12:32:47.309Z,11.03
2018-12-30T12:35:16.477Z,11.70
2018-12-30T12:37:45.629Z,12.40
2018-12-30T12:40:14.762Z,10.67
2018-12-30T12:42:44.209Z,11.40
2018-12-30T12:45:13.355Z,8.83
2018-12-30T12:47:42.506Z,12.40
2018-12-30T12:50:11.695Z,14.20
2018-12-30T12:52:40.965Z,7.27
2018-12-30T12:55:11.022Z,13.67
2018-12-30T12:57:40.205Z,10.67
2018-12-30T13:00:11.322Z,11.87
2018-12-30T13:02:41.538Z,11.97
2018-12-30T13:05:11.013Z,13.17
2018-12-30T13:07:40.194Z,13.00
2018-12-30T13:10:11.201Z,9.97
2018-12-30T13:12:40.454Z,14.03
2018-12-30T13:15:09.815Z,11.77
2018-12-30T13:17:39.079Z,15.07
2018-12-30T13:20:08.255Z,12.83
2018-12-30T13:22:37.418Z,11.70
2018-12-30T13:25:06.593Z,11.90
2018-12-30T13:27:35.753Z,11.47
2018-12-30T13:30:05.552Z,10.90
2018-12-30T13:32:34.786Z,13.67
2018-12-30T13:35:03.980Z,15.27
2018-12-30T13:37:33.132Z,9.53
2018-12-30T13:40:02.391Z,10.53
2018-12-30T13:42:31.912Z,9.40
2018-12-30T13:45:01.185Z,10.60
2018-12-30T13:47:30.321Z,13.07
2018-12-30T13:49:59.582Z,6.77
2018-12-30T13:52:28.976Z,11.23
2018-12-30T13:54:58.143Z,9.27
2018-12-30T13:57:27.367Z,8.23
2018-12-30T13:59:56.488Z,8.07
2018-12-30T14:02:25.755Z,12.90
2018-12-30T14:04:54.945Z,6.47
2018-12-30T14:07:24.153Z,8.87
2018-12-30T14:09:53.375Z,9.43
2018-12-30T14:12:22.515Z,8.27
2018-12-30T14:14:51.682Z,15.37
2018-12-30T14:17:21.194Z,13.60
2018-12-30T14:19:50.513Z,10.57
2018-12-30T14:22:19.860Z,10.27
2018-12-30T14:24:55.320Z,12.03
2018-12-30T14:27:20.311Z,9.23
2018-12-30T14:29:49.486Z,7.87
2018-12-30T14:32:18.670Z,14.03
2018-12-30T14:34:47.900Z,9.13
2018-12-30T14:37:17.086Z,9.90
2018-12-30T14:39:46.349Z,10.00
2018-12-30T14:42:15.603Z,15.77
2018-12-30T14:44:44.793Z,9.80
2018-12-30T14:47:13.932Z,13.03
2018-12-30T14:49:43.093Z,12.77
2018-12-30T14:52:12.405Z,14.37
2018-12-30T14:54:41.691Z,15.27
2018-12-30T14:57:10.861Z,11.00
2018-12-30T14:59:40.315Z,15.07
2018-12-30T15:02:09.593Z,13.60
2018-12-30T15:04:38.797Z,19.40
2018-12-30T15:07:08.106Z,13.23
2018-12-30T15:09:37.365Z,11.90
2018-12-30T15:12:06.846Z,9.77
2018-12-30T15:14:36.004Z,14.43
2018-12-30T15:17:05.280Z,13.93
2018-12-30T15:19:34.611Z,12.00
2018-12-30T15:22:03.853Z,11.40
2018-12-30T15:24:33.049Z,24.27
2018-12-30T15:27:02.342Z,15.73
2018-12-30T15:29:31.960Z,13.27
2018-12-30T15:32:01.120Z,11.77
2018-12-30T15:34:30.422Z,13.33
2018-12-30T15:36:59.597Z,14.97
2018-12-30T15:39:28.799Z,17.70
2018-12-30T15:41:57.979Z,16.73
2018-12-30T15:44:27.173Z,18.03
2018-12-30T15:46:56.433Z,14.13
2018-12-30T15:49:25.718Z,20.27
2018-12-30T15:51:55.011Z,17.60
2018-12-30T15:54:24.178Z,23.80
2018-12-30T15:56:53.779Z,14.13
2018-12-30T15:59:23.143Z,15.37
2018-12-30T16:01:52.283Z,17.20
2018-12-30T16:04:21.497Z,19.60
2018-12-30T16:06:50.644Z,23.67
2018-12-30T16:09:19.806Z,23.47
2018-12-30T16:11:48.987Z,20.27
2018-12-30T16:14:18.221Z,19.67
2018-12-30T16:16:47.380Z,21.90
2018-12-30T16:19:16.635Z,27.00
2018-12-30T16:21:45.812Z,23.60
2018-12-30T16:24:14.981Z,23.53
2018-12-30T16:26:44.177Z,24.47
2018-12-30T16:29:13.353Z,24.53
2018-12-30T16:31:42.605Z,26.23
2018-12-30T16:34:11.799Z,26.27
2018-12-30T16:36:41.009Z,27.50
2018-12-30T16:39:10.395Z,27.90
2018-12-30T16:41:39.748Z,27.13
2018-12-30T16:44:08.891Z,26.43
2018-12-30T16:46:38.081Z,25.80
2018-12-30T16:49:07.360Z,27.37
2018-12-30T16:51:37.151Z,28.43
2018-12-30T16:54:06.411Z,26.17
2018-12-30T16:56:35.591Z,32.50
2018-12-30T16:59:04.848Z,28.50
2018-12-30T17:01:34.181Z,30.60
2018-12-30T17:04:03.919Z,31.43
2018-12-30T17:06:34.005Z,32.90
2018-12-30T17:09:05.045Z,31.93
2018-12-30T17:11:34.216Z,35.17
2018-12-30T17:14:03.414Z,31.83
2018-12-30T17:16:32.730Z,31.43
2018-12-30T17:19:01.895Z,33.23
2018-12-30T17:21:31.090Z,33.00
2018-12-30T17:24:00.258Z,36.80
2018-12-30T17:26:29.579Z,34.50
2018-12-30T17:28:59.201Z,39.73
2018-12-30T17:31:28.484Z,36.60
2018-12-30T17:33:57.676Z,36.87
2018-12-30T17:36:27.175Z,37.93
2018-12-30T17:38:56.388Z,38.87
2018-12-30T17:41:25.546Z,39.03
2018-12-30T17:43:54.765Z,39.53
2018-12-30T17:46:24.009Z,40.07
2018-12-30T17:48:53.213Z,41.47
2018-12-30T17:51:22.396Z,38.77
2018-12-30T17:53:51.616Z,43.83
2018-12-30T17:56:20.821Z,41.03
2018-12-30T17:58:50.015Z,43.13
2018-12-30T18:01:19.272Z,39.87
2018-12-30T18:03:48.932Z,40.30
2018-12-30T18:06:18.110Z,43.17
2018-12-30T18:08:47.387Z,42.93
2018-12-30T18:11:16.981Z,39.90
2018-12-30T18:13:46.671Z,43.30
2018-12-30T18:16:16.115Z,43.90
2018-12-30T18:18:45.616Z,45.70
2018-12-30T18:21:14.793Z,46.30
2018-12-30T18:23:44.110Z,47.60
2018-12-30T18:26:13.319Z,46.83
2018-12-30T18:28:42.527Z,48.87
2018-12-30T18:31:11.742Z,47.87
2018-12-30T18:33:40.942Z,49.47
2018-12-30T18:36:10.170Z,50.80
2018-12-30T18:38:40.903Z,49.43
2018-12-30T18:41:10.095Z,52.20
2018-12-30T18:43:39.329Z,46.33
2018-12-30T18:46:08.549Z,56.17
2018-12-30T18:48:37.728Z,58.47
2018-12-30T18:51:06.953Z,58.47
2018-12-30T18:53:36.156Z,52.80
2018-12-30T18:56:06.917Z,54.20
2018-12-30T18:58:36.603Z,50.73
2018-12-30T19:01:05.843Z,50.57
2018-12-30T19:03:35.045Z,50.53
2018-12-30T19:06:04.357Z,49.13
2018-12-30T19:08:33.642Z,52.97
2018-12-30T19:11:03.145Z,54.00
2018-12-30T19:13:32.374Z,51.93
2018-12-30T19:16:01.800Z,52.20
2018-12-30T19:18:34.479Z,53.77
2018-12-30T19:21:03.749Z,51.80
2018-12-30T19:23:34.121Z,51.77
2018-12-30T19:26:03.646Z,51.13
2018-12-30T19:28:32.963Z,53.77
2018-12-30T19:31:02.191Z,54.83
2018-12-30T19:33:31.402Z,55.00
2018-12-30T19:36:00.622Z,57.47
2018-12-30T19:38:30.004Z,57.80
2018-12-30T19:40:59.455Z,57.23
2018-12-30T19:43:28.679Z,55.90
2018-12-30T19:45:58.185Z,54.13
2018-12-30T19:48:27.418Z,54.53
2018-12-30T19:50:56.689Z,53.27
2018-12-30T19:53:26.016Z,54.17
2018-12-30T19:55:55.516Z,53.83
2018-12-30T19:58:25.619Z,56.47
2018-12-30T20:00:54.837Z,52.87
2018-12-30T20:03:24.087Z,52.27
2018-12-30T20:05:53.618Z,55.67
2018-12-30T20:08:22.992Z,56.77
2018-12-30T20:10:53.989Z,59.27
2018-12-30T20:13:23.367Z,57.93
2018-12-30T20:15:52.730Z,57.73
2018-12-30T20:18:21.971Z,58.37
2018-12-30T20:20:51.619Z,55.67
2018-12-30T20:23:22.527Z,59.67
2018-12-30T20:25:51.922Z,55.90
2018-12-30T20:28:21.368Z,57.97
2018-12-30T20:30:50.865Z,60.23
2018-12-30T20:33:20.896Z,62.40
2018-12-30T20:35:50.293Z,56.73
2018-12-30T20:38:19.943Z,62.13
2018-12-30T20:40:49.238Z,60.60
2018-12-30T20:43:19.673Z,59.37
2018-12-30T20:45:49.143Z,60.60
2018-12-30T20:48:19.632Z,62.27
2018-12-30T20:50:49.488Z,61.93
2018-12-30T20:53:19.003Z,59.83
2018-12-30T20:55:48.784Z,63.00
2018-12-30T20:58:19.208Z,64.30
2018-12-30T21:00:48.463Z,61.27
2018-12-30T21:03:17.857Z,59.87
2018-12-30T21:05:49.386Z,63.80
2018-12-30T21:08:18.904Z,63.40
2018-12-30T21:10:48.176Z,68.97
2018-12-30T21:13:17.707Z,59.20
2018-12-30T21:15:49.153Z,67.00
2018-12-30T21:18:19.491Z,68.37
2018-12-30T21:20:51.526Z,62.80
2018-12-30T21:23:22.764Z,59.57
2018-12-30T21:25:51.981Z,72.40
2018-12-30T21:28:23.668Z,63.83
2018-12-30T21:30:54.354Z,72.77
2018-12-30T21:33:23.577Z,64.93
2018-12-30T21:35:52.931Z,66.83
2018-12-30T21:38:22.233Z,64.73
2018-12-30T21:40:52.731Z,73.00
2018-12-30T21:43:24.368Z,67.23
2018-12-30T21:45:53.812Z,69.73
2018-12-30T21:48:24.303Z,68.87
2018-12-30T21:50:53.630Z,74.80
2018-12-30T21:53:22.660Z,63.23
2018-12-30T21:55:51.943Z,62.40
2018-12-30T21:58:21.708Z,79.27
2018-12-30T22:00:50.994Z,63.60
2018-12-30T22:03:23.854Z,66.83
2018-12-30T22:05:53.055Z,64.13
2018-12-30T22:08:22.742Z,64.70
2018-12-30T22:10:52.669Z,58.43
2018-12-30T22:13:22.328Z,60.27
2018-12-30T22:15:51.924Z,54.80
2018-12-30T22:18:22.205Z,55.13
2018-12-30T22:20:51.635Z,47.27
2018-12-30T22:23:20.875Z,47.60
2018-12-30T22:25:50.267Z,48.53
2018-12-30T22:28:19.731Z,46.33
2018-12-30T22:30:49.224Z,43.50
2018-12-30T22:33:18.407Z,42.30
2018-12-30T22:35:47.607Z,43.30
2018-12-30T22:38:16.791Z,43.37
2018-12-30T22:40:45.966Z,46.77
2018-12-30T22:43:15.197Z,41.20
2018-12-30T22:45:44.637Z,43.83
2018-12-30T22:48:14.475Z,45.83
2018-12-30T22:50:43.681Z,41.40
2018-12-30T22:53:12.926Z,39.07
2018-12-30T22:55:42.120Z,41.73
2018-12-30T22:58:11.367Z,38.90
2018-12-30T23:01:11.638Z,37.27
2018-12-30T23:03:40.885Z,35.73
2018-12-30T23:06:10.203Z,39.07
2018-12-30T23:08:39.416Z,34.23
2018-12-30T23:11:08.697Z,32.03
2018-12-30T23:13:37.961Z,35.30
2018-12-30T23:16:07.128Z,31.90
2018-12-30T23:18:36.341Z,32.47
2018-12-30T23:21:05.524Z,31.97
2018-12-30T23:23:34.748Z,32.37
2018-12-30T23:26:03.959Z,35.03
2018-12-30T23:28:33.242Z,31.63
2018-12-30T23:31:02.487Z,29.53
2018-12-30T23:33:31.683Z,27.10
2018-12-30T23:36:00.827Z,28.40
2018-12-30T23:38:30.051Z,29.20
2018-12-30T23:40:59.348Z,29.03
2018-12-30T23:43:28.540Z,30.90
2018-12-30T23:45:57.770Z,28.73
2018-12-30T23:48:26.972Z,28.57
2018-12-30T23:50:56.150Z,26.20
2018-12-30T23:53:25.357Z,27.60
2018-12-30T23:55:54.632Z,26.87
2018-12-30T23:58:23.840Z,28.27
